Dades de l'estació automàtica Anglès
Resum diari
22:30 TU| Temperatura mitjana | 25.3 °C | |
|---|---|---|
| Temperatura màxima | 34.3 °C | 11:49 TU |
| Temperatura mínima | 17.7 °C | 2:37 TU |
| Humitat relativa mitjana | 63% | |
| Precipitació acumulada | 0.0 mm | |
| Ratxa màxima del vent (10 m) | 33.5 km/h - 130º | 14:44 TU |
| Pressió atmosfèrica mitjana | 1019.9 hPa | |
| Irradiació solar global | 22.3 MJ/m2 | |
El tram horari està expressat en Temps Universal (TU). Cal sumar una hora en horari d'hivern i dues en horari d'estiu per passar a l'hora oficial.
Anglès
| Municipi | Anglès |
|---|---|
| Comarca | Selva |
| Altitud | 151 m |
| Data alta | 10.05.2001 |
| Estat actual | Operativa |
| Període TU |
TM °C |
TX °C |
TN °C |
HRM % |
PPT mm |
VVM (10 m) km/h |
DVM (10 m) graus |
VVX (10 m) km/h |
PM hPa |
RS W/m2 |
|---|---|---|---|---|---|---|---|---|---|---|
| 00:00 - 00:30 | 18.8 | 19.0 | 18.6 | 97 | 0.0 | 1.8 | 298 | 5.0 | 1020.1 | 0 |
| 00:30 - 01:00 | 18.7 | 19.1 | 18.5 | 96 | 0.0 | 3.6 | 299 | 8.3 | 1020.0 | 0 |
| 01:00 - 01:30 | 19.1 | 19.3 | 18.9 | 92 | 0.0 | 2.5 | 283 | 6.5 | 1019.9 | 0 |
| 01:30 - 02:00 | 18.6 | 19.1 | 18.2 | 94 | 0.0 | 0.0 | 240 | 1.1 | 1019.8 | 0 |
| 02:00 - 02:30 | 18.1 | 18.3 | 17.8 | 97 | 0.0 | 0.7 | 260 | 2.5 | 1019.8 | 0 |
| 02:30 - 03:00 | 18.1 | 18.5 | 17.7 | 96 | 0.0 | 2.2 | 275 | 5.8 | 1019.8 | 0 |
| 03:00 - 03:30 | 18.0 | 18.5 | 17.8 | 95 | 0.0 | 2.9 | 281 | 6.1 | 1019.7 | 0 |
| 03:30 - 04:00 | 18.8 | 19.1 | 18.6 | 90 | 0.0 | 3.2 | 282 | 6.8 | 1019.8 | 0 |
| 04:00 - 04:30 | 19.3 | 19.9 | 18.6 | 86 | 0.0 | 3.6 | 282 | 9.0 | 1019.7 | 0 |
| 04:30 - 05:00 | 19.5 | 20.0 | 19.1 | 85 | 0.0 | 3.6 | 289 | 10.1 | 1019.6 | 0 |
| 05:00 - 05:30 | 20.2 | 20.6 | 19.8 | 81 | 0.0 | 4.0 | 307 | 13.0 | 1019.7 | 1 |
| 05:30 - 06:00 | 20.1 | 20.5 | 19.7 | 81 | 0.0 | 4.0 | 312 | 11.9 | 1019.9 | 20 |
| 06:00 - 06:30 | 21.1 | 21.9 | 20.3 | 77 | 0.0 | 5.0 | 339 | 13.3 | 1020.1 | 103 |
| 06:30 - 07:00 | 22.5 | 23.2 | 21.9 | 71 | 0.0 | 5.4 | 350 | 11.9 | 1020.2 | 194 |
| 07:00 - 07:30 | 24.2 | 25.4 | 23.3 | 66 | 0.0 | 3.2 | 8 | 12.2 | 1020.2 | 288 |
| 07:30 - 08:00 | 25.9 | 26.6 | 25.3 | 60 | 0.0 | 3.2 | 8 | 7.6 | 1020.1 | 382 |
| 08:00 - 08:30 | 27.4 | 28.3 | 26.5 | 53 | 0.0 | 2.5 | 15 | 6.5 | 1020.1 | 469 |
| 08:30 - 09:00 | 28.9 | 29.7 | 28.3 | 47 | 0.0 | 2.5 | 82 | 8.3 | 1020.2 | 548 |
| 09:00 - 09:30 | 30.0 | 30.4 | 29.6 | 39 | 0.0 | 4.7 | 104 | 10.4 | 1020.3 | 628 |
| 09:30 - 10:00 | 30.9 | 31.4 | 30.4 | 36 | 0.0 | 4.0 | 97 | 10.1 | 1020.2 | 695 |
| 10:00 - 10:30 | 31.3 | 31.6 | 30.8 | 33 | 0.0 | 4.0 | 99 | 13.3 | 1020.1 | 745 |
| 10:30 - 11:00 | 31.9 | 32.5 | 31.3 | 34 | 0.0 | 4.7 | 85 | 12.6 | 1019.8 | 776 |
| 11:00 - 11:30 | 32.7 | 33.4 | 32.1 | 32 | 0.0 | 6.5 | 99 | 16.2 | 1019.5 | 797 |
| 11:30 - 12:00 | 33.8 | 34.3 | 33.3 | 30 | 0.0 | 6.8 | 138 | 20.2 | 1019.3 | 826 |
| 12:00 - 12:30 | 33.9 | 34.3 | 33.5 | 29 | 0.0 | 7.6 | 128 | 18.7 | 1019.2 | 824 |
| 12:30 - 13:00 | 33.7 | 34.3 | 33.2 | 35 | 0.0 | 12.6 | 146 | 29.5 | 1019.0 | 801 |
| 13:00 - 13:30 | 32.5 | 33.2 | 31.9 | 42 | 0.0 | 16.6 | 141 | 33.1 | 1019.1 | 766 |
| 13:30 - 14:00 | 31.9 | 32.3 | 31.7 | 44 | 0.0 | 15.1 | 145 | 26.6 | 1019.2 | 713 |
| 14:00 - 14:30 | 31.6 | 31.9 | 31.4 | 42 | 0.0 | 16.6 | 140 | 33.1 | 1019.2 | 660 |
| 14:30 - 15:00 | 31.3 | 31.8 | 30.8 | 41 | 0.0 | 16.6 | 137 | 33.5 | 1019.1 | 589 |
| 15:00 - 15:30 | 31.2 | 31.5 | 30.9 | 42 | 0.0 | 13.3 | 136 | 27.7 | 1019.1 | 510 |
| 15:30 - 16:00 | 31.0 | 31.4 | 30.7 | 42 | 0.0 | 12.6 | 132 | 27.0 | 1019.2 | 428 |
| 16:00 - 16:30 | 30.8 | 31.1 | 30.5 | 42 | 0.0 | 10.8 | 135 | 21.2 | 1019.2 | 336 |
| 16:30 - 17:00 | 30.3 | 30.6 | 30.0 | 42 | 0.0 | 11.5 | 137 | 23.0 | 1019.1 | 226 |
| 17:00 - 17:30 | 29.7 | 30.0 | 29.2 | 44 | 0.0 | 9.4 | 142 | 18.4 | 1019.2 | 116 |
| 17:30 - 18:00 | 28.5 | 29.3 | 27.1 | 47 | 0.0 | 6.1 | 112 | 15.8 | 1019.3 | 32 |
| 18:00 - 18:30 | 26.4 | 27.0 | 25.1 | 55 | 0.0 | 2.5 | 48 | 6.5 | 1019.7 | 8 |
| 18:30 - 19:00 | 24.6 | 25.0 | 24.2 | 63 | 0.0 | 1.1 | 277 | 2.9 | 1020.1 | 0 |
| 19:00 - 19:30 | 23.4 | 24.2 | 22.7 | 69 | 0.0 | 1.4 | 278 | 4.0 | 1020.5 | 0 |
| 19:30 - 20:00 | 22.7 | 23.0 | 22.1 | 71 | 0.0 | 1.8 | 288 | 4.7 | 1020.9 | 0 |
| 20:00 - 20:30 | 21.8 | 22.2 | 21.6 | 74 | 0.0 | 2.2 | 288 | 3.6 | 1021.3 | 0 |
| 20:30 - 21:00 | 21.4 | 21.7 | 21.0 | 76 | 0.0 | 2.2 | 281 | 4.3 | 1021.4 | 0 |
| 21:00 - 21:30 | 21.0 | 21.2 | 20.5 | 78 | 0.0 | 2.2 | 270 | 4.0 | 1021.3 | 0 |
| 21:30 - 22:00 | 20.6 | 21.1 | 20.3 | 80 | 0.0 | 0.7 | 282 | 3.6 | 1021.5 | 0 |
| 22:00 - 22:30 | 20.1 | 20.7 | 19.7 | 83 | 0.0 | 0.7 | 80 | 5.0 | 1021.8 | 0 |
| 22:30 - 23:00 | 19.6 | 19.8 | 19.4 | 86 | 0.0 | 0.0 | 11 | 2.2 | 1021.8 | 0 |
Les dades en taronja només han passat un control de qualitat automàtic. Resta pendent la seva validació definitiva.